sensor_id;sensor_type;location;lat;lon;timestamp;pressure;altitude;pressure_sealevel;temperature;humidity
75447;BME280;64024;55.820;37.574;2023-07-31T00:01:25;98091.06;;;25.16;40.26
75447;BME280;64024;55.820;37.574;2023-07-31T00:03:51;98087.09;;;25.14;40.16
75447;BME280;64024;55.820;37.574;2023-07-31T00:06:17;98086.31;;;25.13;40.25
75447;BME280;64024;55.820;37.574;2023-07-31T00:08:43;98089.34;;;25.12;40.37
75447;BME280;64024;55.820;37.574;2023-07-31T00:11:10;98092.41;;;25.10;40.74
75447;BME280;64024;55.820;37.574;2023-07-31T00:13:36;98089.16;;;25.08;40.29
75447;BME280;64024;55.820;37.574;2023-07-31T00:16:03;98092.56;;;25.05;40.40
75447;BME280;64024;55.820;37.574;2023-07-31T00:18:29;98091.16;;;24.99;40.34
75447;BME280;64024;55.820;37.574;2023-07-31T00:20:55;98087.84;;;24.93;40.48
75447;BME280;64024;55.820;37.574;2023-07-31T00:23:21;98088.50;;;24.90;40.62
75447;BME280;64024;55.820;37.574;2023-07-31T00:25:48;98084.50;;;24.88;40.63
75447;BME280;64024;55.820;37.574;2023-07-31T00:28:14;98090.75;;;24.88;40.49
75447;BME280;64024;55.820;37.574;2023-07-31T00:30:41;98084.84;;;24.86;40.80
75447;BME280;64024;55.820;37.574;2023-07-31T00:33:07;98093.34;;;24.85;40.65
75447;BME280;64024;55.820;37.574;2023-07-31T00:35:33;98092.53;;;24.84;40.92
75447;BME280;64024;55.820;37.574;2023-07-31T00:37:59;98086.63;;;24.82;40.99
75447;BME280;64024;55.820;37.574;2023-07-31T00:40:26;98088.91;;;24.80;40.93
75447;BME280;64024;55.820;37.574;2023-07-31T00:42:53;98088.09;;;24.79;40.77
75447;BME280;64024;55.820;37.574;2023-07-31T00:45:19;98072.91;;;24.78;41.12
75447;BME280;64024;55.820;37.574;2023-07-31T00:47:49;98077.91;;;24.76;41.11
75447;BME280;64024;55.820;37.574;2023-07-31T00:50:15;98074.69;;;24.74;41.15
75447;BME280;64024;55.820;37.574;2023-07-31T00:52:42;98080.47;;;24.73;41.21
75447;BME280;64024;55.820;37.574;2023-07-31T00:55:09;98076.47;;;24.70;41.17
75447;BME280;64024;55.820;37.574;2023-07-31T00:57:36;98077.59;;;24.69;41.22
75447;BME280;64024;55.820;37.574;2023-07-31T01:00:04;98081.47;;;24.68;41.24
75447;BME280;64024;55.820;37.574;2023-07-31T01:02:31;98071.69;;;24.67;41.09
75447;BME280;64024;55.820;37.574;2023-07-31T01:04:58;98076.34;;;24.67;41.31
75447;BME280;64024;55.820;37.574;2023-07-31T01:12:31;98078.91;;;24.63;41.26
75447;BME280;64024;55.820;37.574;2023-07-31T01:15:04;98073.81;;;24.62;41.17
75447;BME280;64024;55.820;37.574;2023-07-31T01:17:32;98076.06;;;24.60;41.57
75447;BME280;64024;55.820;37.574;2023-07-31T01:20:01;98083.41;;;24.59;41.44
75447;BME280;64024;55.820;37.574;2023-07-31T01:28:19;98084.09;;;24.56;41.53
75447;BME280;64024;55.820;37.574;2023-07-31T01:30:48;98080.88;;;24.54;41.35
75447;BME280;64024;55.820;37.574;2023-07-31T01:33:16;98073.88;;;24.53;41.65
75447;BME280;64024;55.820;37.574;2023-07-31T01:35:45;98082.34;;;24.51;41.69
75447;BME280;64024;55.820;37.574;2023-07-31T01:38:12;98083.00;;;24.48;41.47
75447;BME280;64024;55.820;37.574;2023-07-31T01:40:42;98083.34;;;24.47;41.35
75447;BME280;64024;55.820;37.574;2023-07-31T01:43:08;98084.13;;;24.47;41.54
75447;BME280;64024;55.820;37.574;2023-07-31T01:45:36;98080.94;;;24.45;41.38
75447;BME280;64024;55.820;37.574;2023-07-31T01:48:03;98077.44;;;24.45;41.57
75447;BME280;64024;55.820;37.574;2023-07-31T01:50:30;98085.56;;;24.45;41.60
75447;BME280;64024;55.820;37.574;2023-07-31T01:52:57;98089.09;;;24.45;41.18
75447;BME280;64024;55.820;37.574;2023-07-31T01:55:23;98080.88;;;24.54;41.22
75447;BME280;64024;55.820;37.574;2023-07-31T01:57:49;98075.31;;;24.50;41.26
75447;BME280;64024;55.820;37.574;2023-07-31T02:00:15;98079.81;;;24.46;41.31
75447;BME280;64024;55.820;37.574;2023-07-31T02:02:42;98086.38;;;24.45;41.42
75447;BME280;64024;55.820;37.574;2023-07-31T02:05:09;98082.84;;;24.45;41.35
75447;BME280;64024;55.820;37.574;2023-07-31T02:07:34;98080.13;;;24.45;41.48
75447;BME280;64024;55.820;37.574;2023-07-31T02:10:01;98087.16;;;24.46;41.72
75447;BME280;64024;55.820;37.574;2023-07-31T02:12:28;98085.56;;;24.45;41.58
75447;BME280;64024;55.820;37.574;2023-07-31T02:14:56;98085.22;;;24.46;41.84
75447;BME280;64024;55.820;37.574;2023-07-31T02:17:22;98086.06;;;24.47;41.47
75447;BME280;64024;55.820;37.574;2023-07-31T02:19:49;98086.84;;;24.47;41.77
75447;BME280;64024;55.820;37.574;2023-07-31T02:22:15;98086.50;;;24.49;41.74
75447;BME280;64024;55.820;37.574;2023-07-31T02:24:41;98092.75;;;24.49;41.76
75447;BME280;64024;55.820;37.574;2023-07-31T02:27:08;98098.66;;;24.51;41.76
75447;BME280;64024;55.820;37.574;2023-07-31T02:29:34;98092.09;;;24.52;41.68
75447;BME280;64024;55.820;37.574;2023-07-31T02:32:00;98093.66;;;24.53;41.50
75447;BME280;64024;55.820;37.574;2023-07-31T02:34:26;98081.69;;;24.54;41.82
75447;BME280;64024;55.820;37.574;2023-07-31T02:36:53;98087.91;;;24.55;41.67
75447;BME280;64024;55.820;37.574;2023-07-31T02:39:20;98090.31;;;24.57;41.70
75447;BME280;64024;55.820;37.574;2023-07-31T02:41:46;98083.75;;;24.58;41.67
75447;BME280;64024;55.820;37.574;2023-07-31T02:44:13;98083.41;;;24.59;41.67
75447;BME280;64024;55.820;37.574;2023-07-31T02:46:40;98092.31;;;24.68;41.75
75447;BME280;64024;55.820;37.574;2023-07-31T02:49:06;98083.38;;;24.68;41.59
75447;BME280;64024;55.820;37.574;2023-07-31T02:51:32;98079.84;;;24.67;41.39
75447;BME280;64024;55.820;37.574;2023-07-31T02:53:59;98084.19;;;24.68;41.36
75447;BME280;64024;55.820;37.574;2023-07-31T02:56:25;98081.91;;;24.70;41.42
75447;BME280;64024;55.820;37.574;2023-07-31T02:58:52;98078.88;;;24.72;41.31
75447;BME280;64024;55.820;37.574;2023-07-31T03:01:18;98078.19;;;24.75;41.22
75447;BME280;64024;55.820;37.574;2023-07-31T03:03:44;98081.72;;;24.75;41.33
75447;BME280;64024;55.820;37.574;2023-07-31T03:06:10;98080.59;;;24.76;41.25
75447;BME280;64024;55.820;37.574;2023-07-31T03:08:36;98087.28;;;24.79;41.36
75447;BME280;64024;55.820;37.574;2023-07-31T03:11:02;98087.78;;;24.81;41.41
75447;BME280;64024;55.820;37.574;2023-07-31T03:13:28;98089.34;;;24.82;41.58
75447;BME280;64024;55.820;37.574;2023-07-31T03:15:55;98083.28;;;24.85;41.42
75447;BME280;64024;55.820;37.574;2023-07-31T03:18:22;98089.16;;;24.87;41.49
75447;BME280;64024;55.820;37.574;2023-07-31T03:20:47;98089.63;;;24.89;41.48
75447;BME280;64024;55.820;37.574;2023-07-31T03:23:14;98088.16;;;24.92;41.25
75447;BME280;64024;55.820;37.574;2023-07-31T03:25:54;98084.78;;;24.95;41.40
75447;BME280;64024;55.820;37.574;2023-07-31T03:28:21;98079.84;;;24.97;41.36
75447;BME280;64024;55.820;37.574;2023-07-31T03:30:48;98087.66;;;24.98;41.40
75447;BME280;64024;55.820;37.574;2023-07-31T03:33:14;98087.00;;;25.01;41.18
75447;BME280;64024;55.820;37.574;2023-07-31T03:35:40;98083.94;;;25.03;41.38
75447;BME280;64024;55.820;37.574;2023-07-31T03:38:06;98087.44;;;25.03;41.24
75447;BME280;64024;55.820;37.574;2023-07-31T03:40:33;98085.66;;;25.08;41.47
75447;BME280;64024;55.820;37.574;2023-07-31T03:42:59;98083.44;;;25.10;41.26
75447;BME280;64024;55.820;37.574;2023-07-31T03:45:26;98088.53;;;25.11;41.24
75447;BME280;64024;55.820;37.574;2023-07-31T03:47:53;98083.59;;;25.13;41.17
75447;BME280;64024;55.820;37.574;2023-07-31T03:50:21;98092.19;;;25.15;41.24
75447;BME280;64024;55.820;37.574;2023-07-31T03:52:47;98089.91;;;25.17;41.30
75447;BME280;64024;55.820;37.574;2023-07-31T03:55:14;98086.53;;;25.20;41.25
75447;BME280;64024;55.820;37.574;2023-07-31T03:57:42;98083.50;;;25.22;41.32
75447;BME280;64024;55.820;37.574;2023-07-31T04:00:09;98082.81;;;25.25;41.22
75447;BME280;64024;55.820;37.574;2023-07-31T04:02:35;98085.22;;;25.26;41.23
75447;BME280;64024;55.820;37.574;2023-07-31T04:05:01;98081.03;;;25.29;41.28
75447;BME280;64024;55.820;37.574;2023-07-31T04:07:27;98079.91;;;25.30;41.20
75447;BME280;64024;55.820;37.574;2023-07-31T04:09:54;98089.31;;;25.33;41.22
75447;BME280;64024;55.820;37.574;2023-07-31T04:12:20;98087.38;;;25.33;41.15
75447;BME280;64024;55.820;37.574;2023-07-31T04:14:46;98087.53;;;25.37;41.19
75447;BME280;64024;55.820;37.574;2023-07-31T04:17:12;98083.66;;;25.38;41.01
75447;BME280;64024;55.820;37.574;2023-07-31T04:19:41;98089.59;;;25.40;40.84
75447;BME280;64024;55.820;37.574;2023-07-31T04:22:07;98096.63;;;25.41;40.87
75447;BME280;64024;55.820;37.574;2023-07-31T04:24:34;98091.97;;;25.41;40.72
75447;BME280;64024;55.820;37.574;2023-07-31T04:27:00;98104.47;;;25.42;40.84
75447;BME280;64024;55.820;37.574;2023-07-31T04:29:26;98106.84;;;25.44;40.77
75447;BME280;64024;55.820;37.574;2023-07-31T04:31:53;98103.78;;;25.45;40.75
75447;BME280;64024;55.820;37.574;2023-07-31T04:34:19;98108.91;;;25.47;41.07
75447;BME280;64024;55.820;37.574;2023-07-31T04:36:45;98105.81;;;25.48;40.98
75447;BME280;64024;55.820;37.574;2023-07-31T04:39:12;98109.47;;;25.52;40.69
75447;BME280;64024;55.820;37.574;2023-07-31T04:41:38;98104.44;;;25.63;40.84
75447;BME280;64024;55.820;37.574;2023-07-31T04:44:04;98108.25;;;25.62;40.72
75447;BME280;64024;55.820;37.574;2023-07-31T04:46:30;98100.09;;;25.62;40.89
75447;BME280;64024;55.820;37.574;2023-07-31T04:48:56;98107.16;;;25.63;41.12
75447;BME280;64024;55.820;37.574;2023-07-31T04:51:23;98107.59;;;25.65;41.31
75447;BME280;64024;55.820;37.574;2023-07-31T04:53:50;98097.97;;;25.68;41.15
75447;BME280;64024;55.820;37.574;2023-07-31T04:56:18;98103.53;;;25.71;41.26
75447;BME280;64024;55.820;37.574;2023-07-31T04:58:44;98118.38;;;25.74;41.11
75447;BME280;64024;55.820;37.574;2023-07-31T05:01:10;98109.59;;;25.77;40.99
75447;BME280;64024;55.820;37.574;2023-07-31T05:03:37;98116.31;;;25.80;41.24
75447;BME280;64024;55.820;37.574;2023-07-31T05:06:03;98116.41;;;25.83;41.27
75447;BME280;64024;55.820;37.574;2023-07-31T05:08:30;98114.16;;;25.85;41.31
75447;BME280;64024;55.820;37.574;2023-07-31T05:10:57;98104.50;;;25.88;40.88
75447;BME280;64024;55.820;37.574;2023-07-31T05:13:24;98112.00;;;25.91;41.20
75447;BME280;64024;55.820;37.574;2023-07-31T05:15:51;98106.25;;;25.92;40.88
75447;BME280;64024;55.820;37.574;2023-07-31T05:18:17;98111.78;;;25.96;41.26
75447;BME280;64024;55.820;37.574;2023-07-31T05:20:43;98113.84;;;25.99;40.95
75447;BME280;64024;55.820;37.574;2023-07-31T05:23:10;98117.03;;;26.01;40.95
75447;BME280;64024;55.820;37.574;2023-07-31T05:25:36;98109.00;;;26.05;41.28
75447;BME280;64024;55.820;37.574;2023-07-31T05:28:02;98111.00;;;26.08;41.09
75447;BME280;64024;55.820;37.574;2023-07-31T05:30:33;98104.00;;;26.19;40.97
75447;BME280;64024;55.820;37.574;2023-07-31T05:33:01;98108.66;;;26.18;40.93
75447;BME280;64024;55.820;37.574;2023-07-31T05:35:27;98112.53;;;26.17;40.85
75447;BME280;64024;55.820;37.574;2023-07-31T05:37:54;98112.19;;;26.19;40.88
75447;BME280;64024;55.820;37.574;2023-07-31T05:40:20;98110.72;;;26.21;41.75
75447;BME280;64024;55.820;37.574;2023-07-31T05:42:47;98115.47;;;26.24;42.18
75447;BME280;64024;55.820;37.574;2023-07-31T05:45:13;98121.38;;;26.26;42.41
75447;BME280;64024;55.820;37.574;2023-07-31T05:47:40;98119.91;;;26.29;41.74
75447;BME280;64024;55.820;37.574;2023-07-31T05:50:07;98121.94;;;26.32;41.62
75447;BME280;64024;55.820;37.574;2023-07-31T05:52:34;98123.53;;;26.33;41.70
75447;BME280;64024;55.820;37.574;2023-07-31T05:55:00;98121.72;;;26.37;41.40
75447;BME280;64024;55.820;37.574;2023-07-31T05:57:27;98133.81;;;26.48;41.28
75447;BME280;64024;55.820;37.574;2023-07-31T05:59:53;98131.44;;;26.47;41.28
75447;BME280;64024;55.820;37.574;2023-07-31T06:02:20;98125.19;;;26.46;41.05
75447;BME280;64024;55.820;37.574;2023-07-31T06:04:45;98127.09;;;26.46;40.63
75447;BME280;64024;55.820;37.574;2023-07-31T06:07:12;98124.38;;;26.46;39.56
75447;BME280;64024;55.820;37.574;2023-07-31T06:09:38;98122.78;;;26.45;39.13
75447;BME280;64024;55.820;37.574;2023-07-31T06:12:04;98129.34;;;26.44;38.89
75447;BME280;64024;55.820;37.574;2023-07-31T06:14:31;98124.56;;;26.41;38.40
75447;BME280;64024;55.820;37.574;2023-07-31T06:16:58;98114.69;;;26.36;38.16
75447;BME280;64024;55.820;37.574;2023-07-31T06:19:25;98120.81;;;26.33;37.97
75447;BME280;64024;55.820;37.574;2023-07-31T06:21:53;98124.22;;;26.30;37.63
75447;BME280;64024;55.820;37.574;2023-07-31T06:24:20;98128.00;;;26.38;37.85
75447;BME280;64024;55.820;37.574;2023-07-31T06:26:47;98121.84;;;26.28;37.83
75447;BME280;64024;55.820;37.574;2023-07-31T06:29:14;98125.00;;;26.18;37.26
75447;BME280;64024;55.820;37.574;2023-07-31T06:31:41;98116.94;;;26.10;37.43
75447;BME280;64024;55.820;37.574;2023-07-31T06:34:07;98115.22;;;26.05;37.01
75447;BME280;64024;55.820;37.574;2023-07-31T06:36:34;98126.44;;;26.03;37.41
75447;BME280;64024;55.820;37.574;2023-07-31T06:39:00;98130.78;;;26.05;37.59
75447;BME280;64024;55.820;37.574;2023-07-31T06:41:27;98133.28;;;26.10;37.92
75447;BME280;64024;55.820;37.574;2023-07-31T06:43:52;98129.06;;;26.12;38.23
75447;BME280;64024;55.820;37.574;2023-07-31T06:46:19;98136.56;;;26.15;37.93
75447;BME280;64024;55.820;37.574;2023-07-31T06:48:46;98134.75;;;26.19;38.16
75447;BME280;64024;55.820;37.574;2023-07-31T06:51:11;98134.88;;;26.23;38.36
75447;BME280;64024;55.820;37.574;2023-07-31T06:53:38;98135.00;;;26.26;38.60
75447;BME280;64024;55.820;37.574;2023-07-31T06:56:04;98135.44;;;26.28;38.85
75447;BME280;64024;55.820;37.574;2023-07-31T06:58:32;98134.78;;;26.32;38.42
75447;BME280;64024;55.820;37.574;2023-07-31T07:00:58;98135.69;;;26.36;38.36
75447;BME280;64024;55.820;37.574;2023-07-31T07:03:24;98139.31;;;26.40;38.49
75447;BME280;64024;55.820;37.574;2023-07-31T07:05:51;98137.50;;;26.44;38.86
75447;BME280;64024;55.820;37.574;2023-07-31T07:08:17;98143.91;;;26.48;38.67
75447;BME280;64024;55.820;37.574;2023-07-31T07:10:43;98141.63;;;26.50;38.59
75447;BME280;64024;55.820;37.574;2023-07-31T07:13:10;98143.69;;;26.53;38.63
75447;BME280;64024;55.820;37.574;2023-07-31T07:15:36;98143.34;;;26.55;38.73
75447;BME280;64024;55.820;37.574;2023-07-31T07:18:06;98148.09;;;26.58;38.48
75447;BME280;64024;55.820;37.574;2023-07-31T07:20:35;98143.91;;;26.60;38.24
75447;BME280;64024;55.820;37.574;2023-07-31T07:23:01;98140.84;;;26.62;37.80
75447;BME280;64024;55.820;37.574;2023-07-31T07:25:29;98145.84;;;26.60;37.47
75447;BME280;64024;55.820;37.574;2023-07-31T07:27:56;98140.41;;;26.60;37.51
75447;BME280;64024;55.820;37.574;2023-07-31T07:30:23;98141.19;;;26.60;37.47
75447;BME280;64024;55.820;37.574;2023-07-31T07:32:51;98142.78;;;26.61;37.28
75447;BME280;64024;55.820;37.574;2023-07-31T07:35:17;98134.94;;;26.72;37.38
75447;BME280;64024;55.820;37.574;2023-07-31T07:37:43;98142.66;;;26.70;37.74
75447;BME280;64024;55.820;37.574;2023-07-31T07:40:10;98141.06;;;26.69;37.82
75447;BME280;64024;55.820;37.574;2023-07-31T07:42:37;98150.03;;;26.69;37.96
75447;BME280;64024;55.820;37.574;2023-07-31T07:45:04;98143.44;;;26.70;38.57
75447;BME280;64024;55.820;37.574;2023-07-31T07:47:31;98154.81;;;26.72;38.25
75447;BME280;64024;55.820;37.574;2023-07-31T07:49:57;98145.19;;;26.75;37.62
75447;BME280;64024;55.820;37.574;2023-07-31T07:52:24;98140.50;;;26.75;38.03
75447;BME280;64024;55.820;37.574;2023-07-31T07:54:50;98144.03;;;26.76;38.01
75447;BME280;64024;55.820;37.574;2023-07-31T07:57:17;98146.75;;;26.76;37.79
75447;BME280;64024;55.820;37.574;2023-07-31T07:59:44;98147.56;;;26.76;37.74
75447;BME280;64024;55.820;37.574;2023-07-31T08:02:10;98143.56;;;26.86;37.56
75447;BME280;64024;55.820;37.574;2023-07-31T08:04:38;98144.22;;;26.83;37.40
75447;BME280;64024;55.820;37.574;2023-07-31T08:07:04;98149.25;;;26.81;36.99
75447;BME280;64024;55.820;37.574;2023-07-31T08:09:31;98149.47;;;26.88;36.90
75447;BME280;64024;55.820;37.574;2023-07-31T08:11:57;98148.56;;;26.84;36.29
75447;BME280;64024;55.820;37.574;2023-07-31T08:14:29;98151.31;;;26.84;36.55
75447;BME280;64024;55.820;37.574;2023-07-31T08:16:55;98151.31;;;26.84;36.67
75447;BME280;64024;55.820;37.574;2023-07-31T08:19:23;98147.31;;;26.82;36.18
75447;BME280;64024;55.820;37.574;2023-07-31T08:21:49;98148.00;;;26.78;35.95
75447;BME280;64024;55.820;37.574;2023-07-31T08:24:16;98155.16;;;26.71;35.49
75447;BME280;64024;55.820;37.574;2023-07-31T08:26:42;98156.75;;;26.60;34.97
75447;BME280;64024;55.820;37.574;2023-07-31T08:29:08;98152.44;;;26.46;34.78
75447;BME280;64024;55.820;37.574;2023-07-31T08:31:37;98155.78;;;26.31;34.60
75447;BME280;64024;55.820;37.574;2023-07-31T08:34:05;98159.94;;;26.16;34.86
75447;BME280;64024;55.820;37.574;2023-07-31T08:36:31;98152.22;;;26.06;34.71
75447;BME280;64024;55.820;37.574;2023-07-31T08:38:59;98152.44;;;26.01;35.04
75447;BME280;64024;55.820;37.574;2023-07-31T08:41:25;98152.44;;;26.01;35.26
75447;BME280;64024;55.820;37.574;2023-07-31T08:43:53;98156.38;;;26.03;35.43
75447;BME280;64024;55.820;37.574;2023-07-31T08:46:22;98153.34;;;26.05;35.44
75447;BME280;64024;55.820;37.574;2023-07-31T08:48:49;98152.22;;;26.06;34.99
75447;BME280;64024;55.820;37.574;2023-07-31T08:51:18;98150.28;;;26.07;35.06
75447;BME280;64024;55.820;37.574;2023-07-31T08:53:46;98157.31;;;26.08;35.25
75447;BME280;64024;55.820;37.574;2023-07-31T08:56:13;98155.72;;;26.07;34.99
75447;BME280;64024;55.820;37.574;2023-07-31T08:58:43;98153.78;;;26.07;34.99
75447;BME280;64024;55.820;37.574;2023-07-31T09:01:10;98156.19;;;26.09;34.89
75447;BME280;64024;55.820;37.574;2023-07-31T09:03:39;98159.03;;;26.12;34.97
75447;BME280;64024;55.820;37.574;2023-07-31T09:06:06;98160.72;;;26.17;35.32
75447;BME280;64024;55.820;37.574;2023-07-31T09:08:34;98159.75;;;26.21;35.14
75447;BME280;64024;55.820;37.574;2023-07-31T09:11:03;98159.84;;;26.25;34.99
75447;BME280;64024;55.820;37.574;2023-07-31T09:13:32;98148.28;;;26.28;34.84
75447;BME280;64024;55.820;37.574;2023-07-31T09:15:59;98145.31;;;26.33;35.18
75447;BME280;64024;55.820;37.574;2023-07-31T09:18:25;98150.56;;;26.38;35.57
75447;BME280;64024;55.820;37.574;2023-07-31T09:21:01;98153.06;;;26.43;35.38
75447;BME280;64024;55.820;37.574;2023-07-31T09:23:41;98160.25;;;26.48;35.47
75447;BME280;64024;55.820;37.574;2023-07-31T09:26:08;98152.53;;;26.50;35.72
75447;BME280;64024;55.820;37.574;2023-07-31T09:28:35;98157.31;;;26.53;35.72
75447;BME280;64024;55.820;37.574;2023-07-31T09:31:01;98152.66;;;26.53;35.69
75447;BME280;64024;55.820;37.574;2023-07-31T09:33:28;98153.44;;;26.54;35.69
75447;BME280;64024;55.820;37.574;2023-07-31T09:35:59;98149.91;;;26.53;35.75
75447;BME280;64024;55.820;37.574;2023-07-31T09:38:26;98147.53;;;26.52;35.17
75447;BME280;64024;55.820;37.574;2023-07-31T09:40:52;98154.34;;;26.58;35.17
75447;BME280;64024;55.820;37.574;2023-07-31T09:43:20;98146.75;;;26.51;34.79
75447;BME280;64024;55.820;37.574;2023-07-31T09:45:47;98150.81;;;26.45;34.84
75447;BME280;64024;55.820;37.574;2023-07-31T09:48:18;98147.06;;;26.38;34.37
75447;BME280;64024;55.820;37.574;2023-07-31T09:50:46;98154.19;;;26.30;34.41
75447;BME280;64024;55.820;37.574;2023-07-31T09:53:13;98159.41;;;26.23;34.78
75447;BME280;64024;55.820;37.574;2023-07-31T09:55:41;98147.94;;;26.17;34.66
75447;BME280;64024;55.820;37.574;2023-07-31T09:58:13;98141.66;;;26.17;34.52
75447;BME280;64024;55.820;37.574;2023-07-31T10:00:39;98152.25;;;26.18;34.74
75447;BME280;64024;55.820;37.574;2023-07-31T10:03:08;98151.56;;;26.21;34.73
75447;BME280;64024;55.820;37.574;2023-07-31T10:08:03;98151.78;;;26.28;34.75
75447;BME280;64024;55.820;37.574;2023-07-31T10:10:31;98150.44;;;26.35;35.08
75447;BME280;64024;55.820;37.574;2023-07-31T10:12:59;98155.69;;;26.40;35.45
75447;BME280;64024;55.820;37.574;2023-07-31T10:15:25;98157.72;;;26.43;35.82
75447;BME280;64024;55.820;37.574;2023-07-31T10:17:52;98152.44;;;26.46;35.82
75447;BME280;64024;55.820;37.574;2023-07-31T10:20:20;98157.19;;;26.49;35.35
75447;BME280;64024;55.820;37.574;2023-07-31T10:22:48;98160.50;;;26.55;35.46
75447;BME280;64024;55.820;37.574;2023-07-31T10:25:18;98165.25;;;26.58;35.27
75447;BME280;64024;55.820;37.574;2023-07-31T10:27:47;98157.97;;;26.62;35.18
75447;BME280;64024;55.820;37.574;2023-07-31T10:30:20;98164.69;;;26.65;35.08
75447;BME280;64024;55.820;37.574;2023-07-31T10:32:48;98165.16;;;26.67;34.73
75447;BME280;64024;55.820;37.574;2023-07-31T10:35:17;98158.22;;;26.69;34.88
75447;BME280;64024;55.820;37.574;2023-07-31T10:37:44;98161.06;;;26.73;35.18
75447;BME280;64024;55.820;37.574;2023-07-31T10:40:16;98165.06;;;26.75;35.07
75447;BME280;64024;55.820;37.574;2023-07-31T10:42:46;98168.22;;;26.77;35.04
75447;BME280;64024;55.820;37.574;2023-07-31T10:45:44;98158.56;;;26.80;35.54
75447;BME280;64024;55.820;37.574;2023-07-31T10:48:14;98157.44;;;26.81;35.36
75447;BME280;64024;55.820;37.574;2023-07-31T10:50:52;98154.34;;;26.83;35.56
75447;BME280;64024;55.820;37.574;2023-07-31T10:53:30;98149.69;;;26.83;35.21
75447;BME280;64024;55.820;37.574;2023-07-31T10:56:04;98152.41;;;26.83;34.73
75447;BME280;64024;55.820;37.574;2023-07-31T10:58:32;98153.91;;;26.81;34.94
75447;BME280;64024;55.820;37.574;2023-07-31T11:01:01;98153.69;;;26.73;34.21
75447;BME280;64024;55.820;37.574;2023-07-31T11:06:08;98158.22;;;26.57;33.97
75447;BME280;64024;55.820;37.574;2023-07-31T11:08:38;98159.59;;;26.51;34.01
75447;BME280;64024;55.820;37.574;2023-07-31T11:11:09;98149.25;;;26.44;33.87
75447;BME280;64024;55.820;37.574;2023-07-31T11:13:48;98152.81;;;26.36;33.78
75447;BME280;64024;55.820;37.574;2023-07-31T11:16:25;98151.78;;;26.28;33.89
75447;BME280;64024;55.820;37.574;2023-07-31T11:18:53;98155.09;;;26.22;33.83
75447;BME280;64024;55.820;37.574;2023-07-31T11:21:24;98145.22;;;26.17;33.92
75447;BME280;64024;55.820;37.574;2023-07-31T11:23:56;98147.34;;;26.12;34.08
75447;BME280;64024;55.820;37.574;2023-07-31T11:26:24;98145.31;;;26.09;34.06
75447;BME280;64024;55.820;37.574;2023-07-31T11:28:51;98150.66;;;26.17;34.66
75447;BME280;64024;55.820;37.574;2023-07-31T11:31:18;98148.25;;;26.16;34.79
75447;BME280;64024;55.820;37.574;2023-07-31T11:33:44;98145.22;;;26.17;34.86
75447;BME280;64024;55.820;37.574;2023-07-31T11:36:20;98149.16;;;26.20;35.03
75447;BME280;64024;55.820;37.574;2023-07-31T11:38:47;98143.41;;;26.21;34.65
75447;BME280;64024;55.820;37.574;2023-07-31T11:41:15;98141.59;;;26.25;34.77
75447;BME280;64024;55.820;37.574;2023-07-31T11:43:42;98148.63;;;26.26;35.20
75447;BME280;64024;55.820;37.574;2023-07-31T11:46:09;98145.56;;;26.28;35.16
75447;BME280;64024;55.820;37.574;2023-07-31T11:48:37;98140.56;;;26.30;35.18
75447;BME280;64024;55.820;37.574;2023-07-31T11:51:05;98145.69;;;26.32;35.04
75447;BME280;64024;55.820;37.574;2023-07-31T11:56:03;98150.44;;;26.35;34.77
75447;BME280;64024;55.820;37.574;2023-07-31T11:58:31;98152.81;;;26.36;34.91
75447;BME280;64024;55.820;37.574;2023-07-31T12:00:58;98157.13;;;26.37;35.14
75447;BME280;64024;55.820;37.574;2023-07-31T12:03:25;98152.16;;;26.39;35.41
75447;BME280;64024;55.820;37.574;2023-07-31T12:05:53;98158.88;;;26.42;34.90
75447;BME280;64024;55.820;37.574;2023-07-31T12:08:21;98158.88;;;26.42;35.09
75447;BME280;64024;55.820;37.574;2023-07-31T12:10:54;98152.28;;;26.43;34.75
75447;BME280;64024;55.820;37.574;2023-07-31T12:15:49;98168.78;;;26.46;34.94
75447;BME280;64024;55.820;37.574;2023-07-31T12:18:20;98165.22;;;26.46;35.48
75447;BME280;64024;55.820;37.574;2023-07-31T12:20:54;98160.59;;;26.46;35.45
75447;BME280;64024;55.820;37.574;2023-07-31T12:23:21;98170.38;;;26.47;35.78
75447;BME280;64024;55.820;37.574;2023-07-31T12:26:11;98167.75;;;26.51;36.02
75447;BME280;64024;55.820;37.574;2023-07-31T12:28:44;98170.94;;;26.53;35.64
75447;BME280;64024;55.820;37.574;2023-07-31T12:31:16;98165.94;;;26.55;36.04
75447;BME280;64024;55.820;37.574;2023-07-31T12:33:46;98169.47;;;26.56;36.08
75447;BME280;64024;55.820;37.574;2023-07-31T12:36:15;98170.69;;;26.58;36.21
75447;BME280;64024;55.820;37.574;2023-07-31T12:38:43;98171.16;;;26.60;36.41
75447;BME280;64024;55.820;37.574;2023-07-31T12:41:11;98177.06;;;26.62;36.31
75447;BME280;64024;55.820;37.574;2023-07-31T12:43:39;98178.66;;;26.63;36.02
75447;BME280;64024;55.820;37.574;2023-07-31T12:46:06;98174.56;;;26.57;35.94
75447;BME280;64024;55.820;37.574;2023-07-31T12:48:34;98176.72;;;26.51;35.94
75447;BME280;64024;55.820;37.574;2023-07-31T12:51:01;98174.88;;;26.43;35.67
75447;BME280;64024;55.820;37.574;2023-07-31T12:53:28;98172.25;;;26.35;35.51
75447;BME280;64024;55.820;37.574;2023-07-31T12:55:55;98174.38;;;26.29;35.51
75447;BME280;64024;55.820;37.574;2023-07-31T12:58:22;98171.09;;;26.23;35.53
75447;BME280;64024;55.820;37.574;2023-07-31T13:00:48;98169.38;;;26.19;35.02
75447;BME280;64024;55.820;37.574;2023-07-31T13:03:14;98171.63;;;26.17;35.38
75447;BME280;64024;55.820;37.574;2023-07-31T13:05:41;98169.72;;;26.17;35.49
75447;BME280;64024;55.820;37.574;2023-07-31T13:08:07;98167.09;;;26.21;35.71
75447;BME280;64024;55.820;37.574;2023-07-31T13:10:33;98172.66;;;26.24;36.06
75447;BME280;64024;55.820;37.574;2023-07-31T13:12:59;98171.22;;;26.27;35.76